createdAt,value
2018-09-05T00:02:27.946Z,12.60
2018-09-05T00:04:55.289Z,13.80
2018-09-05T00:07:22.659Z,12.40
2018-09-05T00:09:50.003Z,12.70
2018-09-05T00:12:17.394Z,14.97
2018-09-05T00:14:44.749Z,12.73
2018-09-05T00:17:12.104Z,13.40
2018-09-05T00:19:39.446Z,13.60
2018-09-05T00:22:07.732Z,14.23
2018-09-05T00:24:35.055Z,14.97
2018-09-05T00:27:02.388Z,13.97
2018-09-05T00:29:30.664Z,14.40
2018-09-05T00:31:58.668Z,14.03
2018-09-05T00:34:26.054Z,13.70
2018-09-05T00:36:53.512Z,13.13
2018-09-05T00:39:20.856Z,14.60
2018-09-05T00:41:48.227Z,14.03
2018-09-05T00:44:15.582Z,14.93
2018-09-05T00:46:42.961Z,14.80
2018-09-05T00:49:10.303Z,16.20
2018-09-05T00:51:37.626Z,17.20
2018-09-05T00:54:05.065Z,17.80
2018-09-05T00:56:32.509Z,16.30
2018-09-05T00:59:00.829Z,15.93
2018-09-05T01:01:28.767Z,14.77
2018-09-05T01:03:56.178Z,15.10
2018-09-05T01:06:23.534Z,14.67
2018-09-05T01:08:50.931Z,16.10
2018-09-05T01:11:18.252Z,15.70
2018-09-05T01:13:45.610Z,14.23
2018-09-05T01:16:12.953Z,15.83
2018-09-05T01:18:40.321Z,16.47
2018-09-05T01:21:07.670Z,14.50
2018-09-05T01:23:35.015Z,14.90
2018-09-05T01:26:02.696Z,14.70
2018-09-05T01:28:31.158Z,15.90
2018-09-05T01:30:58.574Z,15.10
2018-09-05T01:33:25.986Z,15.67
2018-09-05T01:35:59.221Z,15.07
2018-09-05T01:38:26.628Z,14.40
2018-09-05T01:40:53.968Z,14.10
2018-09-05T01:43:21.324Z,16.00
2018-09-05T01:45:48.677Z,15.23
2018-09-05T01:48:16.022Z,15.90
2018-09-05T01:50:44.129Z,15.97
2018-09-05T01:53:11.866Z,16.00
2018-09-05T01:55:39.188Z,16.53
2018-09-05T01:58:06.731Z,17.10
2018-09-05T02:00:35.222Z,17.57
2018-09-05T02:03:03.717Z,16.43
2018-09-05T02:05:31.124Z,16.67
2018-09-05T02:07:59.098Z,15.67
2018-09-05T02:10:26.507Z,16.60
2018-09-05T02:12:53.868Z,17.50
2018-09-05T02:15:21.283Z,17.27
2018-09-05T02:17:48.613Z,17.70
2018-09-05T02:20:15.950Z,18.00
2018-09-05T02:22:43.284Z,16.20
2018-09-05T02:25:11.126Z,17.70
2018-09-05T02:27:39.554Z,18.47
2018-09-05T02:30:07.168Z,18.10
2018-09-05T02:32:34.617Z,17.70
2018-09-05T02:35:02.023Z,18.83
2018-09-05T02:37:29.434Z,19.23
2018-09-05T02:39:56.830Z,19.03
2018-09-05T02:42:24.152Z,15.93
2018-09-05T02:44:51.506Z,18.10
2018-09-05T02:47:18.872Z,15.40
2018-09-05T02:49:46.224Z,15.40
2018-09-05T02:52:13.542Z,15.87
2018-09-05T02:54:41.462Z,16.00
2018-09-05T02:57:10.183Z,16.67
2018-09-05T02:59:37.679Z,17.50
2018-09-05T03:02:05.129Z,15.77
2018-09-05T03:04:32.501Z,16.50
2018-09-05T03:06:59.845Z,15.27
2018-09-05T03:09:27.242Z,15.97
2018-09-05T03:11:54.566Z,16.57
2018-09-05T03:14:21.912Z,15.27
2018-09-05T03:16:49.224Z,15.17
2018-09-05T03:19:16.573Z,15.87
2018-09-05T03:21:43.903Z,16.07
2018-09-05T03:24:12.106Z,14.80
2018-09-05T03:26:40.338Z,16.33
2018-09-05T03:29:07.750Z,17.00
2018-09-05T03:31:35.165Z,15.37
2018-09-05T03:34:02.510Z,18.00
2018-09-05T03:36:29.877Z,37.43
2018-09-05T03:38:57.226Z,17.13
2018-09-05T03:41:24.572Z,16.53
2018-09-05T03:43:51.900Z,15.77
2018-09-05T03:46:19.233Z,16.60
2018-09-05T03:48:46.563Z,16.57
2018-09-05T03:51:14.023Z,15.83
2018-09-05T03:53:42.281Z,15.97
2018-09-05T03:56:13.839Z,15.43
2018-09-05T03:58:42.131Z,16.53
2018-09-05T04:01:10.087Z,16.80
2018-09-05T04:03:37.458Z,16.17
2018-09-05T04:06:04.978Z,15.77
2018-09-05T04:08:32.306Z,16.37
2018-09-05T04:10:59.679Z,16.87
2018-09-05T04:13:27.004Z,16.67
2018-09-05T04:15:54.385Z,16.13
2018-09-05T04:18:21.898Z,16.30
2018-09-05T04:20:49.242Z,18.07
2018-09-05T04:23:16.559Z,18.03
2018-09-05T04:25:44.221Z,19.90
2018-09-05T04:28:12.759Z,16.87
2018-09-05T04:30:40.598Z,18.47
2018-09-05T04:33:07.975Z,18.20
2018-09-05T04:35:35.350Z,19.40
2018-09-05T04:38:02.757Z,17.10
2018-09-05T04:40:30.200Z,17.70
2018-09-05T04:42:57.581Z,18.60
2018-09-05T04:45:24.967Z,17.83
2018-09-05T04:47:52.492Z,19.70
2018-09-05T04:50:19.891Z,18.47
2018-09-05T04:52:47.360Z,16.30
2018-09-05T04:55:14.916Z,16.67
2018-09-05T04:57:43.498Z,16.90
2018-09-05T05:00:11.740Z,19.63
2018-09-05T05:02:39.174Z,19.03
2018-09-05T05:05:06.530Z,17.23
2018-09-05T05:07:33.907Z,17.60
2018-09-05T05:10:01.301Z,15.03
2018-09-05T05:12:28.670Z,16.37
2018-09-05T05:14:56.000Z,14.93
2018-09-05T05:17:23.351Z,16.03
2018-09-05T05:19:50.719Z,16.60
2018-09-05T05:22:18.074Z,15.23
2018-09-05T05:24:45.551Z,15.20
2018-09-05T05:27:14.117Z,16.40
2018-09-05T05:29:41.943Z,17.30
2018-09-05T05:32:09.366Z,16.50
2018-09-05T05:34:36.742Z,20.67
2018-09-05T05:37:04.121Z,22.50
2018-09-05T05:39:31.453Z,18.83
2018-09-05T05:41:59.231Z,17.53
2018-09-05T05:44:26.566Z,17.87
2018-09-05T05:46:53.925Z,16.87
2018-09-05T05:49:21.258Z,16.07
2018-09-05T05:51:48.608Z,16.33
2018-09-05T05:54:16.155Z,17.57
2018-09-05T05:56:44.626Z,16.40
2018-09-05T05:59:12.462Z,17.33
2018-09-05T06:01:39.904Z,16.73
2018-09-05T06:04:07.253Z,18.80
2018-09-05T06:06:34.572Z,17.60
2018-09-05T06:09:01.943Z,18.40
2018-09-05T06:11:29.310Z,21.27
2018-09-05T06:13:56.678Z,19.23
2018-09-05T06:16:24.022Z,20.80
2018-09-05T06:18:51.363Z,23.87
2018-09-05T06:21:18.909Z,24.05
2018-09-05T06:23:46.614Z,21.53
2018-09-05T06:26:15.034Z,18.73
2018-09-05T06:28:42.871Z,18.23
2018-09-05T06:31:10.631Z,18.10
2018-09-05T06:33:38.064Z,17.80
2018-09-05T06:36:05.401Z,17.37
2018-09-05T06:38:32.741Z,17.40
2018-09-05T06:41:00.079Z,18.17
2018-09-05T06:43:27.645Z,18.87
2018-09-05T06:45:54.982Z,19.83
2018-09-05T06:48:22.351Z,32.43
2018-09-05T06:50:53.186Z,30.70
2018-09-05T06:53:20.570Z,21.87
2018-09-05T06:55:47.895Z,19.83
2018-09-05T06:58:16.384Z,21.63
2018-09-05T07:00:44.750Z,20.87
2018-09-05T07:03:12.186Z,20.10
2018-09-05T07:05:39.609Z,20.13
2018-09-05T07:08:06.993Z,19.47
2018-09-05T07:10:34.339Z,23.40
2018-09-05T07:13:01.730Z,22.37
2018-09-05T07:15:29.046Z,22.90
2018-09-05T07:17:56.370Z,20.50
2018-09-05T07:20:23.721Z,20.70
2018-09-05T07:22:51.036Z,19.43
2018-09-05T07:25:18.391Z,22.20
2018-09-05T07:27:46.605Z,22.77
2018-09-05T07:30:16.186Z,22.73
2018-09-05T07:32:44.236Z,22.70
2018-09-05T07:35:11.656Z,21.57
2018-09-05T07:37:38.978Z,20.57
2018-09-05T07:40:06.324Z,23.20
2018-09-05T07:42:33.646Z,21.50
2018-09-05T07:45:01.045Z,21.20
2018-09-05T07:47:28.376Z,20.93
2018-09-05T07:49:55.736Z,19.70
2018-09-05T07:52:23.059Z,20.30
2018-09-05T07:54:50.681Z,20.53
2018-09-05T07:57:18.433Z,18.87
2018-09-05T07:59:46.847Z,21.50
2018-09-05T08:02:14.750Z,20.97
2018-09-05T08:04:42.235Z,18.50
2018-09-05T08:07:09.553Z,20.27
2018-09-05T08:09:36.896Z,18.67
2018-09-05T08:12:04.308Z,19.27
2018-09-05T08:14:31.614Z,19.27
2018-09-05T08:16:58.931Z,18.20
2018-09-05T08:19:26.294Z,20.30
2018-09-05T08:21:53.626Z,19.10
2018-09-05T08:24:21.141Z,17.10
2018-09-05T08:26:48.606Z,20.37
2018-09-05T08:29:17.120Z,14.40
2018-09-05T08:31:44.759Z,22.30
2018-09-05T08:34:12.169Z,20.70
2018-09-05T08:36:39.712Z,13.60
2018-09-05T08:39:08.643Z,14.00
2018-09-05T08:41:35.980Z,14.70
2018-09-05T08:44:03.434Z,18.90
2018-09-05T08:46:30.762Z,17.20
2018-09-05T08:48:58.079Z,20.93
2018-09-05T08:51:25.441Z,17.73
2018-09-05T08:53:52.761Z,19.73
2018-09-05T08:56:20.301Z,14.50
2018-09-05T08:58:48.429Z,18.23
2018-09-05T09:01:16.602Z,21.57
2018-09-05T09:03:43.994Z,22.40
2018-09-05T09:06:11.338Z,17.93
2018-09-05T09:08:39.381Z,14.80
2018-09-05T09:11:06.798Z,17.50
2018-09-05T09:13:34.122Z,17.43
2018-09-05T09:16:01.498Z,18.97
2018-09-05T09:18:28.874Z,18.03
2018-09-05T09:20:56.241Z,20.83
2018-09-05T09:23:23.553Z,16.87
2018-09-05T09:25:50.925Z,24.13
2018-09-05T09:28:18.330Z,36.33
2018-09-05T09:30:45.649Z,20.43
2018-09-05T09:33:13.129Z,16.53
2018-09-05T09:35:41.345Z,15.10
2018-09-05T09:38:09.181Z,12.80
2018-09-05T09:40:36.588Z,17.60
2018-09-05T09:43:03.915Z,16.00
2018-09-05T09:45:31.300Z,13.17
2018-09-05T09:47:58.613Z,16.17
2018-09-05T09:50:25.961Z,15.60
2018-09-05T09:52:53.301Z,15.70
2018-09-05T09:55:20.630Z,16.20
2018-09-05T09:57:47.951Z,12.60
2018-09-05T10:00:19.634Z,12.63
2018-09-05T10:02:52.292Z,29.53
2018-09-05T10:05:24.979Z,22.50
2018-09-05T10:07:57.631Z,20.97
2018-09-05T10:10:30.323Z,17.33
2018-09-05T10:13:03.133Z,14.30
2018-09-05T10:15:35.919Z,15.50
2018-09-05T10:18:08.847Z,12.57
2018-09-05T10:20:36.285Z,20.50
2018-09-05T10:23:03.624Z,18.90
2018-09-05T10:25:30.940Z,22.60
2018-09-05T10:27:58.281Z,20.10
2018-09-05T10:30:25.593Z,14.13
2018-09-05T10:32:52.933Z,12.50
2018-09-05T10:35:20.251Z,13.70
2018-09-05T10:37:47.620Z,13.63
2018-09-05T10:40:14.996Z,13.67
2018-09-05T10:42:43.151Z,16.00
2018-09-05T10:45:11.525Z,12.43
2018-09-05T10:47:38.953Z,17.50
2018-09-05T10:50:06.336Z,20.30
2018-09-05T10:52:33.708Z,14.90
2018-09-05T10:55:01.022Z,14.80
2018-09-05T10:57:28.361Z,13.80
2018-09-05T10:59:55.684Z,13.80
2018-09-05T11:02:23.068Z,13.27
2018-09-05T11:04:50.385Z,18.20
2018-09-05T11:07:17.752Z,19.13
2018-09-05T11:09:45.081Z,13.00
2018-09-05T11:12:13.256Z,13.70
2018-09-05T11:14:41.351Z,13.00
2018-09-05T11:17:08.721Z,15.90
2018-09-05T11:19:36.047Z,17.30
2018-09-05T11:22:03.398Z,18.27
2018-09-05T11:24:30.731Z,13.87
2018-09-05T11:26:58.089Z,13.13
2018-09-05T11:29:25.444Z,12.73
2018-09-05T11:31:52.830Z,13.30
2018-09-05T11:34:20.150Z,14.67
2018-09-05T11:36:47.536Z,12.80
2018-09-05T11:39:15.169Z,13.50
2018-09-05T11:41:43.612Z,14.73
2018-09-05T11:44:11.794Z,13.33
2018-09-05T11:46:39.567Z,15.53
2018-09-05T11:49:07.729Z,23.43
2018-09-05T11:51:35.056Z,16.10
2018-09-05T11:54:02.413Z,21.03
2018-09-05T11:56:29.731Z,12.70
2018-09-05T11:58:57.078Z,14.33
2018-09-05T12:01:25.143Z,14.83
2018-09-05T12:03:52.491Z,13.97
2018-09-05T12:06:19.826Z,20.10
2018-09-05T12:08:47.181Z,16.10
2018-09-05T12:11:14.722Z,11.87
2018-09-05T12:13:43.134Z,13.03
2018-09-05T12:16:10.792Z,13.80
2018-09-05T12:18:38.326Z,11.30
2018-09-05T12:21:05.649Z,13.37
2018-09-05T12:23:32.990Z,10.67
2018-09-05T12:26:00.402Z,12.43
2018-09-05T12:28:27.759Z,10.90
2018-09-05T12:30:55.118Z,13.87
2018-09-05T12:33:22.466Z,12.33
2018-09-05T12:35:49.798Z,16.27
2018-09-05T12:38:17.208Z,13.27
2018-09-05T12:40:44.966Z,15.20
2018-09-05T12:43:13.234Z,13.93
2018-09-05T12:45:40.595Z,14.00
2018-09-05T12:48:08.009Z,11.50
2018-09-05T12:50:35.353Z,13.40
2018-09-05T12:53:02.683Z,12.40
2018-09-05T12:55:30.016Z,13.00
2018-09-05T12:57:57.350Z,14.40
2018-09-05T13:00:24.800Z,12.30
2018-09-05T13:02:52.145Z,13.40
2018-09-05T13:05:19.586Z,12.40
2018-09-05T13:07:46.925Z,13.70
2018-09-05T13:10:15.395Z,11.80
2018-09-05T13:12:43.659Z,16.90
2018-09-05T13:15:11.097Z,12.60
2018-09-05T13:17:38.516Z,13.10
2018-09-05T13:20:05.926Z,12.57
2018-09-05T13:22:33.281Z,12.50
2018-09-05T13:25:00.623Z,11.60
2018-09-05T13:27:28.037Z,13.20
2018-09-05T13:29:55.399Z,11.90
2018-09-05T13:32:22.738Z,10.70
2018-09-05T13:34:50.077Z,12.07
2018-09-05T13:37:17.401Z,12.97
2018-09-05T13:39:45.677Z,12.20
2018-09-05T13:42:13.753Z,11.77
2018-09-05T13:44:41.163Z,12.30
2018-09-05T13:47:08.918Z,13.30
2018-09-05T13:49:36.297Z,14.30
2018-09-05T13:52:04.650Z,11.27
2018-09-05T13:54:32.916Z,12.97
2018-09-05T13:57:00.317Z,11.60
2018-09-05T13:59:27.711Z,13.97
2018-09-05T14:01:55.235Z,12.20
2018-09-05T14:04:22.722Z,12.57
2018-09-05T14:06:50.072Z,11.97
2018-09-05T14:09:17.538Z,12.40
2018-09-05T14:11:45.835Z,12.53
2018-09-05T14:14:13.671Z,11.73
2018-09-05T14:16:41.050Z,12.70
2018-09-05T14:19:08.391Z,11.13
2018-09-05T14:21:35.713Z,11.67
2018-09-05T14:24:03.053Z,12.00
2018-09-05T14:26:30.433Z,12.03
2018-09-05T14:28:57.761Z,12.50
2018-09-05T14:31:25.184Z,23.32
2018-09-05T14:33:52.805Z,12.33
2018-09-05T14:36:20.180Z,11.30
2018-09-05T14:38:47.793Z,12.70
2018-09-05T14:41:21.597Z,11.83
2018-09-05T14:43:48.942Z,11.27
2018-09-05T14:46:17.070Z,11.60
2018-09-05T14:48:46.351Z,12.03
2018-09-05T14:54:01.977Z,11.17
2018-09-05T14:56:29.715Z,10.82
2018-09-05T14:58:57.397Z,10.87
2018-09-05T15:04:20.445Z,11.20
2018-09-05T15:06:48.169Z,12.50
2018-09-05T15:09:16.673Z,12.20
2018-09-05T15:11:44.608Z,11.20
2018-09-05T15:14:12.902Z,12.57
2018-09-05T15:16:40.300Z,10.40
2018-09-05T15:19:08.635Z,14.10
2018-09-05T15:21:36.260Z,12.37
2018-09-05T15:24:03.611Z,10.83
2018-09-05T15:26:31.031Z,10.60
2018-09-05T15:28:58.402Z,10.70
2018-09-05T15:31:25.760Z,9.40
2018-09-05T15:33:53.130Z,10.23
2018-09-05T15:36:20.521Z,10.17
2018-09-05T15:38:48.635Z,9.40
2018-09-05T15:41:17.396Z,9.93
2018-09-05T15:43:45.323Z,9.47
2018-09-05T15:46:12.721Z,9.60
2018-09-05T15:48:40.062Z,11.20
2018-09-05T15:51:07.453Z,16.00
2018-09-05T15:53:34.812Z,10.87
2018-09-05T15:56:02.271Z,10.70
2018-09-05T15:58:29.717Z,9.87
2018-09-05T16:00:57.103Z,10.30
2018-09-05T16:03:24.967Z,10.80
2018-09-05T16:05:52.339Z,10.40
2018-09-05T16:08:19.821Z,10.00
2018-09-05T16:10:48.415Z,11.17
2018-09-05T16:13:16.454Z,9.73
2018-09-05T16:15:43.993Z,10.47
2018-09-05T16:18:11.310Z,9.93
2018-09-05T16:20:38.694Z,10.03
2018-09-05T16:23:06.310Z,11.60
2018-09-05T16:25:33.643Z,9.67
2018-09-05T16:28:01.015Z,9.90
2018-09-05T16:30:28.350Z,9.67
2018-09-05T16:32:55.875Z,10.40
2018-09-05T16:35:23.303Z,10.33
2018-09-05T16:37:50.774Z,10.03
2018-09-05T16:40:19.130Z,9.63
2018-09-05T16:42:47.062Z,9.83
2018-09-05T16:45:14.521Z,10.73
2018-09-05T16:47:41.989Z,10.57
2018-09-05T16:50:09.358Z,11.20
2018-09-05T16:52:36.778Z,10.30
2018-09-05T16:55:04.129Z,9.77
2018-09-05T16:57:31.623Z,10.90
2018-09-05T16:59:58.938Z,9.17
2018-09-05T17:02:26.306Z,11.30
2018-09-05T17:04:54.215Z,12.00
2018-09-05T17:07:21.732Z,9.63
2018-09-05T17:09:50.167Z,9.90
2018-09-05T17:12:18.007Z,9.80
2018-09-05T17:14:45.417Z,9.00
2018-09-05T17:17:12.780Z,9.70
2018-09-05T17:19:40.142Z,9.27
2018-09-05T17:22:07.616Z,10.37
2018-09-05T17:24:34.938Z,8.63
2018-09-05T17:27:02.310Z,10.07
2018-09-05T17:29:29.629Z,9.10
2018-09-05T17:31:56.945Z,8.80
2018-09-05T17:34:24.335Z,9.87
2018-09-05T17:36:51.951Z,9.20
2018-09-05T17:39:20.439Z,10.43
2018-09-05T17:41:48.219Z,9.20
2018-09-05T17:44:15.621Z,9.40
2018-09-05T17:46:42.950Z,9.27
2018-09-05T17:49:10.621Z,10.50
2018-09-05T17:51:37.972Z,9.90
2018-09-05T17:54:05.650Z,11.07
2018-09-05T17:56:33.022Z,10.77
2018-09-05T17:59:00.415Z,11.20
2018-09-05T18:01:27.827Z,11.20
2018-09-05T18:03:55.215Z,10.73
2018-09-05T18:06:23.051Z,10.90
2018-09-05T18:08:51.706Z,9.87
2018-09-05T18:11:19.535Z,11.40
2018-09-05T18:13:46.973Z,10.77
2018-09-05T18:16:14.361Z,11.97
2018-09-05T18:18:41.874Z,12.40
2018-09-05T18:21:09.283Z,11.37
2018-09-05T18:23:36.706Z,23.30
2018-09-05T18:26:04.051Z,14.40
2018-09-05T18:28:31.664Z,13.27
2018-09-05T18:30:59.443Z,14.10
2018-09-05T18:33:27.167Z,14.70
2018-09-05T18:35:54.721Z,14.70
2018-09-05T18:38:23.037Z,14.97
2018-09-05T18:40:51.169Z,14.03
2018-09-05T18:43:18.510Z,14.20
2018-09-05T18:45:45.849Z,15.17
2018-09-05T18:48:13.241Z,13.60
2018-09-05T18:50:40.640Z,14.97
2018-09-05T18:53:11.978Z,14.40
2018-09-05T18:55:40.122Z,15.60
2018-09-05T18:58:07.465Z,14.33
2018-09-05T19:00:35.214Z,13.30
2018-09-05T19:03:02.544Z,15.00
2018-09-05T19:05:29.900Z,14.97
2018-09-05T19:07:57.229Z,14.43
2018-09-05T19:10:25.021Z,15.00
2018-09-05T19:12:53.771Z,15.43
2018-09-05T19:15:21.733Z,13.00
2018-09-05T19:17:49.478Z,15.80
2018-09-05T19:20:16.843Z,14.13
2018-09-05T19:22:44.209Z,13.53
2018-09-05T19:25:11.535Z,15.40
2018-09-05T19:27:38.877Z,14.77
2018-09-05T19:30:06.246Z,14.20
2018-09-05T19:32:33.556Z,14.17
2018-09-05T19:35:00.907Z,15.27
2018-09-05T19:37:28.233Z,14.03
2018-09-05T19:39:55.946Z,12.90
2018-09-05T19:42:24.345Z,15.50
2018-09-05T19:44:52.245Z,15.53
2018-09-05T19:47:19.891Z,15.90
2018-09-05T19:49:47.329Z,15.13
2018-09-05T19:52:14.908Z,15.97
2018-09-05T19:54:42.293Z,15.00
2018-09-05T19:57:09.631Z,15.87
2018-09-05T19:59:36.998Z,14.00
2018-09-05T20:02:04.356Z,14.70
2018-09-05T20:04:31.705Z,14.73
2018-09-05T20:06:59.057Z,15.40
2018-09-05T20:09:26.635Z,14.60
2018-09-05T20:11:55.097Z,16.10
2018-09-05T20:14:22.873Z,14.63
2018-09-05T20:16:50.307Z,16.57
2018-09-05T20:19:17.698Z,16.23
2018-09-05T20:21:45.069Z,14.35
2018-09-05T20:24:12.420Z,15.40
2018-09-05T20:26:39.785Z,15.40
2018-09-05T20:29:07.129Z,16.70
2018-09-05T20:31:34.506Z,17.13
2018-09-05T20:34:01.942Z,16.80
2018-09-05T20:36:29.359Z,16.83
2018-09-05T20:38:57.078Z,16.30
2018-09-05T20:41:25.723Z,16.73
2018-09-05T20:43:53.380Z,16.00
2018-09-05T20:46:20.780Z,16.57
2018-09-05T20:48:48.106Z,15.67
2018-09-05T20:51:15.596Z,16.40
2018-09-05T20:53:42.934Z,16.23
2018-09-05T20:56:10.390Z,15.97
2018-09-05T20:58:37.816Z,15.90
2018-09-05T21:01:05.698Z,16.30
2018-09-05T21:03:33.252Z,16.70
2018-09-05T21:06:01.142Z,16.50
2018-09-05T21:08:28.562Z,17.60
2018-09-05T21:10:57.083Z,17.67
2018-09-05T21:13:25.225Z,16.80
2018-09-05T21:15:52.635Z,14.80
2018-09-05T21:18:19.980Z,15.63
2018-09-05T21:20:47.353Z,16.90
2018-09-05T21:23:14.810Z,15.57
2018-09-05T21:25:42.134Z,15.57
2018-09-05T21:28:09.492Z,15.70
2018-09-05T21:30:36.846Z,15.80
2018-09-05T21:33:04.230Z,15.73
2018-09-05T21:35:31.729Z,16.97
2018-09-05T21:37:59.340Z,17.10
2018-09-05T21:40:27.823Z,16.23
2018-09-05T21:42:55.847Z,16.90
2018-09-05T21:45:23.268Z,16.70
2018-09-05T21:47:50.630Z,15.87
2018-09-05T21:50:17.974Z,15.93
2018-09-05T21:52:45.415Z,17.37
2018-09-05T21:55:12.728Z,15.07
2018-09-05T21:57:40.074Z,16.13
2018-09-05T22:00:08.029Z,16.77
2018-09-05T22:02:35.426Z,16.50
2018-09-05T22:05:02.812Z,16.70
2018-09-05T22:07:30.319Z,17.83
2018-09-05T22:09:58.626Z,16.80
2018-09-05T22:12:26.466Z,16.90
2018-09-05T22:14:53.895Z,16.93
2018-09-05T22:17:21.320Z,17.10
2018-09-05T22:19:48.654Z,17.97
2018-09-05T22:22:16.057Z,18.10
2018-09-05T22:24:43.419Z,16.73
2018-09-05T22:27:10.785Z,17.60
2018-09-05T22:29:38.563Z,18.10
2018-09-05T22:32:05.941Z,17.57
2018-09-05T22:34:33.288Z,18.10
2018-09-05T22:37:00.921Z,17.00
2018-09-05T22:39:29.364Z,18.77
2018-09-05T22:41:57.284Z,17.53
2018-09-05T22:44:30.425Z,18.80
2018-09-05T22:47:03.281Z,17.77
2018-09-05T22:49:41.598Z,17.60
2018-09-05T22:54:25.111Z,18.43
2018-09-05T22:57:03.264Z,17.50
2018-09-05T22:59:36.489Z,17.40
2018-09-05T23:02:09.286Z,17.87
2018-09-05T23:04:42.059Z,18.27
2018-09-05T23:07:15.824Z,17.77
2018-09-05T23:09:48.718Z,18.00
2018-09-05T23:12:21.603Z,18.07
2018-09-05T23:14:56.426Z,18.27
2018-09-05T23:17:29.982Z,17.63
2018-09-05T23:20:03.347Z,17.50
2018-09-05T23:22:36.251Z,18.80
2018-09-05T23:25:03.722Z,17.07
2018-09-05T23:27:31.623Z,19.00
2018-09-05T23:29:59.990Z,17.53
2018-09-05T23:32:27.331Z,19.17
2018-09-05T23:34:54.745Z,18.20
2018-09-05T23:37:22.088Z,18.03
2018-09-05T23:39:49.439Z,18.40
2018-09-05T23:42:16.763Z,19.13
2018-09-05T23:44:44.134Z,19.00
2018-09-05T23:47:11.471Z,19.50
2018-09-05T23:49:38.839Z,20.87
2018-09-05T23:52:06.231Z,18.03
2018-09-05T23:54:33.644Z,19.80
2018-09-05T23:57:01.987Z,19.70
2018-09-05T23:59:29.978Z,18.70
